createdAt,value
2019-01-24T00:01:26.107Z,91.30
2019-01-24T00:03:56.252Z,91.50
2019-01-24T00:06:26.361Z,91.20
2019-01-24T00:08:56.560Z,91.10
2019-01-24T00:11:26.681Z,91.20
2019-01-24T00:13:56.772Z,91.20
2019-01-24T00:16:26.789Z,91.20
2019-01-24T00:18:57.100Z,91.30
2019-01-24T00:21:27.137Z,91.20
2019-01-24T00:23:57.192Z,91.00
2019-01-24T00:26:27.300Z,91.10
2019-01-24T00:28:57.352Z,91.10
2019-01-24T00:31:27.417Z,91.10
2019-01-24T00:33:57.448Z,91.00
2019-01-24T00:36:27.697Z,91.00
2019-01-24T00:38:59.440Z,90.90
2019-01-24T00:41:32.268Z,91.00
2019-01-24T00:44:02.273Z,90.80
2019-01-24T00:46:32.357Z,90.50
2019-01-24T00:49:02.480Z,90.80
2019-01-24T00:51:32.544Z,90.90
2019-01-24T00:54:02.520Z,91.10
2019-01-24T00:56:32.693Z,91.20
2019-01-24T00:59:02.726Z,91.00
2019-01-24T01:01:32.792Z,91.00
2019-01-24T01:04:02.814Z,90.80
2019-01-24T01:06:32.891Z,91.00
2019-01-24T01:09:05.375Z,91.10
2019-01-24T01:11:37.176Z,91.00
2019-01-24T01:14:07.345Z,90.90
2019-01-24T01:16:37.418Z,90.70
2019-01-24T01:19:07.487Z,90.80
2019-01-24T01:21:37.506Z,90.70
2019-01-24T01:24:07.614Z,90.50
2019-01-24T01:26:37.587Z,90.50
2019-01-24T01:29:07.557Z,90.70
2019-01-24T01:31:37.884Z,90.90
2019-01-24T01:34:07.909Z,91.00
2019-01-24T01:36:37.897Z,90.80
2019-01-24T01:39:08.957Z,90.70
2019-01-24T01:41:39.096Z,90.40
2019-01-24T01:44:09.138Z,90.40
2019-01-24T01:46:39.208Z,90.50
2019-01-24T01:49:09.223Z,90.40
2019-01-24T01:51:39.216Z,90.30
2019-01-24T01:54:09.516Z,90.30
2019-01-24T01:56:39.461Z,90.10
2019-01-24T01:59:09.436Z,90.30
2019-01-24T02:01:39.596Z,90.40
2019-01-24T02:04:09.940Z,90.20
2019-01-24T02:06:40.055Z,90.20
2019-01-24T02:09:10.664Z,90.30
2019-01-24T02:11:40.813Z,90.40
2019-01-24T02:14:11.023Z,90.60
2019-01-24T02:16:41.126Z,90.60
2019-01-24T02:19:11.208Z,90.60
2019-01-24T02:21:41.112Z,90.50
2019-01-24T02:24:11.210Z,90.40
2019-01-24T02:26:41.258Z,90.30
2019-01-24T02:29:11.151Z,90.20
2019-01-24T02:31:42.269Z,90.40
2019-01-24T02:34:12.207Z,90.60
2019-01-24T02:36:42.194Z,90.70
2019-01-24T02:39:12.186Z,90.90
2019-01-24T02:41:42.315Z,90.80
2019-01-24T02:44:12.654Z,90.50
2019-01-24T02:46:42.722Z,90.50
2019-01-24T02:49:12.714Z,90.50
2019-01-24T02:51:42.798Z,90.60
2019-01-24T02:54:12.931Z,90.70
2019-01-24T02:56:42.995Z,90.60
2019-01-24T02:59:12.909Z,90.60
2019-01-24T03:01:43.028Z,90.50
2019-01-24T03:04:12.887Z,90.50
2019-01-24T03:06:42.918Z,90.60
2019-01-24T03:09:12.835Z,90.80
2019-01-24T03:11:42.887Z,90.80
2019-01-24T03:14:12.730Z,90.80
2019-01-24T03:16:42.829Z,90.80
2019-01-24T03:19:13.167Z,90.80
2019-01-24T03:21:43.226Z,90.90
2019-01-24T03:24:13.194Z,90.70
2019-01-24T03:26:43.155Z,90.90
2019-01-24T03:29:13.138Z,91.00
2019-01-24T03:31:43.148Z,91.00
2019-01-24T03:34:13.101Z,91.20
2019-01-24T03:36:43.411Z,91.20
2019-01-24T03:39:13.473Z,91.20
2019-01-24T03:41:43.525Z,91.20
2019-01-24T03:44:13.518Z,91.10
2019-01-24T03:46:43.477Z,91.10
2019-01-24T03:49:14.413Z,91.10
2019-01-24T03:51:44.532Z,91.00
2019-01-24T03:54:14.536Z,91.00
2019-01-24T03:56:57.926Z,91.00
2019-01-24T03:59:27.893Z,91.20
2019-01-24T04:01:58.039Z,91.30
2019-01-24T04:04:28.163Z,91.50
2019-01-24T04:06:58.164Z,91.50
2019-01-24T04:09:28.226Z,91.50
2019-01-24T04:11:58.304Z,91.60
2019-01-24T04:14:29.722Z,91.60
2019-01-24T04:16:59.740Z,91.60
2019-01-24T04:19:29.692Z,91.60
2019-01-24T04:21:59.753Z,91.70
2019-01-24T04:24:29.668Z,91.60
2019-01-24T04:26:59.792Z,91.50
2019-01-24T04:29:29.724Z,91.50
2019-01-24T04:31:59.846Z,91.30
2019-01-24T04:34:29.850Z,91.40
2019-01-24T04:36:59.827Z,91.30
2019-01-24T04:39:29.777Z,91.10
2019-01-24T04:41:59.995Z,90.90
2019-01-24T04:44:30.085Z,90.70
2019-01-24T04:47:00.042Z,90.80
2019-01-24T04:49:30.033Z,90.80
2019-01-24T04:52:00.356Z,90.80
2019-01-24T04:54:30.364Z,90.80
2019-01-24T04:57:00.432Z,91.00
2019-01-24T04:59:30.390Z,91.10
2019-01-24T05:02:00.464Z,91.10
2019-01-24T05:04:30.415Z,91.00
2019-01-24T05:07:00.533Z,91.30
2019-01-24T05:09:30.521Z,91.30
2019-01-24T05:12:00.613Z,91.30
2019-01-24T05:14:30.684Z,91.40
2019-01-24T05:17:00.542Z,91.50
2019-01-24T05:19:30.594Z,91.20
2019-01-24T05:22:01.064Z,91.10
2019-01-24T05:24:31.040Z,91.20
2019-01-24T05:27:01.010Z,91.30
2019-01-24T05:29:31.073Z,91.20
2019-01-24T05:32:01.173Z,91.30
2019-01-24T05:34:31.093Z,91.00
2019-01-24T05:37:02.364Z,90.90
2019-01-24T05:39:32.384Z,91.00
2019-01-24T05:42:03.072Z,91.10
2019-01-24T05:44:33.165Z,91.20
2019-01-24T05:47:03.226Z,91.30
2019-01-24T05:49:33.223Z,91.30
2019-01-24T05:52:03.306Z,91.20
2019-01-24T05:54:33.479Z,91.20
2019-01-24T05:57:03.606Z,91.10
2019-01-24T05:59:33.772Z,91.20
2019-01-24T06:02:04.201Z,91.20
2019-01-24T06:04:34.202Z,91.30
2019-01-24T06:07:04.319Z,91.30
2019-01-24T06:09:34.375Z,91.30
2019-01-24T06:12:05.892Z,91.40
2019-01-24T06:14:35.943Z,91.10
2019-01-24T06:17:07.032Z,91.10
2019-01-24T06:19:37.144Z,91.10
2019-01-24T06:22:07.284Z,90.70
2019-01-24T06:24:37.279Z,90.60
2019-01-24T06:27:07.319Z,90.60
2019-01-24T06:29:37.259Z,90.70
2019-01-24T06:32:08.913Z,90.90
2019-01-24T06:34:38.859Z,90.90
2019-01-24T06:37:08.949Z,91.00
2019-01-24T06:39:38.979Z,91.10
2019-01-24T06:42:09.175Z,91.10
2019-01-24T06:44:39.162Z,91.10
2019-01-24T06:47:09.343Z,91.20
2019-01-24T06:49:39.242Z,91.30
2019-01-24T06:52:10.505Z,91.30
2019-01-24T06:54:40.478Z,91.30
2019-01-24T06:57:10.994Z,91.20
2019-01-24T06:59:41.121Z,91.20
2019-01-24T07:02:11.175Z,91.10
2019-01-24T07:04:42.088Z,91.10
2019-01-24T07:07:12.256Z,91.00
2019-01-24T07:09:42.178Z,90.90
2019-01-24T07:12:12.276Z,91.10
2019-01-24T07:14:42.295Z,90.90
2019-01-24T07:17:15.573Z,90.80
2019-01-24T07:19:54.305Z,90.70
2019-01-24T07:22:26.181Z,90.60
2019-01-24T07:24:59.144Z,90.60
2019-01-24T07:27:34.972Z,90.30
2019-01-24T07:30:07.516Z,90.40
2019-01-24T07:32:37.527Z,90.40
2019-01-24T07:35:09.939Z,90.30
2019-01-24T07:37:40.035Z,90.20
2019-01-24T07:44:01.434Z,90.20
2019-01-24T07:46:31.654Z,90.30
2019-01-24T07:49:01.690Z,90.50
2019-01-24T07:51:31.707Z,90.40
2019-01-24T07:54:01.874Z,90.50
2019-01-24T07:56:31.853Z,90.60
2019-01-24T07:59:01.900Z,90.50
2019-01-24T08:01:33.678Z,90.70
2019-01-24T08:04:04.100Z,90.60
2019-01-24T08:06:35.961Z,90.70
2019-01-24T08:09:07.420Z,90.90
2019-01-24T08:11:37.595Z,90.80
2019-01-24T08:14:07.634Z,90.70
2019-01-24T08:16:37.698Z,90.80
2019-01-24T08:19:07.774Z,90.50
2019-01-24T08:21:37.901Z,90.60
2019-01-24T08:24:07.817Z,90.80
2019-01-24T08:26:38.012Z,90.80
2019-01-24T08:29:07.956Z,90.80
2019-01-24T08:31:38.184Z,90.50
2019-01-24T08:34:08.063Z,90.50
2019-01-24T08:36:38.040Z,90.30
2019-01-24T08:39:09.739Z,90.10
2019-01-24T08:41:40.847Z,90.20
2019-01-24T08:44:10.895Z,90.20
2019-01-24T08:46:40.882Z,90.30
2019-01-24T08:49:10.959Z,90.20
2019-01-24T08:51:40.974Z,90.40
2019-01-24T08:54:12.009Z,90.30
2019-01-24T08:56:41.985Z,90.50
2019-01-24T08:59:12.134Z,90.20
2019-01-24T09:01:45.979Z,90.20
2019-01-24T09:04:15.963Z,90.00
2019-01-24T09:06:46.063Z,90.00
2019-01-24T09:09:16.041Z,90.00
2019-01-24T09:11:46.116Z,90.00
2019-01-24T09:14:16.014Z,89.80
2019-01-24T09:16:46.007Z,89.40
2019-01-24T09:19:16.073Z,89.10
2019-01-24T09:21:46.163Z,88.70
2019-01-24T09:24:16.202Z,88.80
2019-01-24T09:26:46.159Z,89.30
2019-01-24T09:29:16.095Z,88.70
2019-01-24T09:31:46.103Z,88.70
2019-01-24T09:34:16.103Z,89.10
2019-01-24T09:36:46.264Z,88.90
2019-01-24T09:39:16.480Z,88.70
2019-01-24T09:41:46.498Z,89.10
2019-01-24T09:44:16.543Z,89.30
2019-01-24T09:46:46.604Z,89.10
2019-01-24T09:49:16.700Z,88.50
2019-01-24T09:51:46.828Z,87.80
2019-01-24T09:54:16.877Z,87.90
2019-01-24T09:56:46.943Z,87.50
2019-01-24T09:59:17.034Z,87.60
2019-01-24T10:01:47.326Z,86.90
2019-01-24T10:04:17.293Z,86.50
2019-01-24T10:06:47.236Z,86.70
2019-01-24T10:09:17.214Z,86.20
2019-01-24T10:11:47.195Z,86.00
2019-01-24T10:14:18.735Z,86.40
2019-01-24T10:16:48.675Z,86.30
2019-01-24T10:19:19.935Z,85.90
2019-01-24T10:21:49.917Z,86.00
2019-01-24T10:24:20.097Z,85.00
2019-01-24T10:26:50.124Z,84.20
2019-01-24T10:29:29.823Z,83.60
2019-01-24T10:32:04.946Z,83.70
2019-01-24T10:34:34.893Z,83.80
2019-01-24T10:37:04.997Z,83.30
2019-01-24T10:39:34.921Z,83.80
2019-01-24T10:42:05.888Z,84.40
2019-01-24T10:44:35.955Z,84.70
2019-01-24T10:47:06.017Z,85.00
2019-01-24T10:49:36.023Z,84.70
2019-01-24T10:52:06.037Z,84.20
2019-01-24T10:54:36.135Z,81.30
2019-01-24T10:57:06.305Z,79.70
2019-01-24T10:59:36.412Z,78.90
2019-01-24T11:02:06.637Z,78.70
2019-01-24T11:04:36.631Z,79.30
2019-01-24T11:07:06.840Z,79.80
2019-01-24T11:09:36.772Z,79.60
2019-01-24T11:12:07.075Z,79.90
2019-01-24T11:14:37.081Z,80.40
2019-01-24T11:17:07.067Z,81.00
2019-01-24T11:19:37.258Z,79.60
2019-01-24T11:22:07.395Z,78.70
2019-01-24T11:24:37.500Z,79.00
2019-01-24T11:27:07.653Z,77.10
2019-01-24T11:29:37.588Z,76.40
2019-01-24T11:32:07.680Z,76.50
2019-01-24T11:34:37.768Z,75.50
2019-01-24T11:37:08.047Z,75.50
2019-01-24T11:39:38.138Z,74.90
2019-01-24T11:42:08.484Z,75.50
2019-01-24T11:44:38.597Z,74.10
2019-01-24T11:47:08.605Z,73.60
2019-01-24T11:49:38.660Z,71.50
2019-01-24T11:52:08.797Z,70.50
2019-01-24T11:54:38.815Z,70.30
2019-01-24T11:57:08.779Z,72.30
2019-01-24T11:59:38.775Z,69.80
2019-01-24T12:02:08.901Z,70.60
2019-01-24T12:04:39.578Z,70.50
2019-01-24T12:07:09.596Z,71.70
2019-01-24T12:09:42.012Z,69.60
2019-01-24T12:12:12.064Z,68.80
2019-01-24T12:14:42.056Z,69.90
2019-01-24T12:17:12.133Z,67.90
2019-01-24T12:19:42.092Z,67.30
2019-01-24T12:22:12.124Z,66.00
2019-01-24T12:24:42.038Z,66.70
2019-01-24T12:27:12.039Z,66.60
2019-01-24T12:29:42.088Z,67.00
2019-01-24T12:32:12.125Z,67.00
2019-01-24T12:34:42.213Z,65.90
2019-01-24T12:37:13.993Z,63.00
2019-01-24T12:39:43.967Z,59.80
2019-01-24T12:42:14.113Z,55.70
2019-01-24T12:44:44.133Z,51.60
2019-01-24T12:47:17.173Z,51.10
2019-01-24T12:49:48.173Z,50.40
2019-01-24T12:52:18.189Z,52.10
2019-01-24T12:54:48.256Z,53.10
2019-01-24T12:57:20.087Z,54.00
2019-01-24T12:59:50.054Z,53.70
2019-01-24T13:02:20.114Z,54.70
2019-01-24T13:04:50.032Z,56.30
2019-01-24T13:07:20.169Z,56.00
2019-01-24T13:09:50.255Z,56.10
2019-01-24T13:12:20.283Z,56.60
2019-01-24T13:14:50.393Z,56.70
2019-01-24T13:17:20.383Z,58.10
2019-01-24T13:19:50.501Z,59.20
2019-01-24T13:22:20.617Z,59.60
2019-01-24T13:24:50.658Z,60.80
2019-01-24T13:27:20.667Z,60.20
2019-01-24T13:29:50.704Z,60.40
2019-01-24T13:32:21.718Z,60.90
2019-01-24T13:34:51.820Z,60.80
2019-01-24T13:37:25.778Z,61.90
2019-01-24T13:39:53.646Z,61.70
2019-01-24T13:42:23.650Z,62.30
2019-01-24T13:45:01.357Z,62.00
2019-01-24T13:47:31.730Z,63.20
2019-01-24T13:50:01.747Z,63.10
2019-01-24T13:52:31.990Z,63.90
2019-01-24T13:55:02.103Z,63.70
2019-01-24T13:57:32.314Z,64.00
2019-01-24T14:00:02.318Z,64.10
2019-01-24T14:02:32.461Z,64.30
2019-01-24T14:05:03.511Z,64.90
2019-01-24T14:07:35.047Z,65.60
2019-01-24T14:10:06.349Z,65.20
2019-01-24T14:12:38.108Z,65.40
2019-01-24T14:15:10.715Z,66.00
2019-01-24T14:17:41.824Z,66.60
2019-01-24T14:20:15.322Z,66.80
2019-01-24T14:22:45.474Z,67.20
2019-01-24T14:25:18.060Z,67.90
2019-01-24T14:27:48.199Z,68.60
2019-01-24T14:30:22.319Z,68.90
2019-01-24T14:32:53.502Z,69.30
2019-01-24T14:35:24.308Z,69.90
2019-01-24T14:37:54.398Z,70.00
2019-01-24T14:40:24.624Z,70.40
2019-01-24T14:42:54.719Z,70.70
2019-01-24T14:45:25.118Z,71.30
2019-01-24T14:47:55.146Z,71.70
2019-01-24T14:50:26.331Z,72.10
2019-01-24T14:52:56.517Z,72.70
2019-01-24T14:55:26.631Z,73.00
2019-01-24T14:57:56.632Z,73.50
2019-01-24T15:00:29.034Z,74.00
2019-01-24T15:02:59.198Z,74.30
2019-01-24T15:05:29.214Z,74.50
2019-01-24T15:07:59.385Z,74.80
2019-01-24T15:10:29.932Z,75.20
2019-01-24T15:12:59.975Z,75.50
2019-01-24T15:15:30.063Z,75.90
2019-01-24T15:18:00.165Z,76.10
2019-01-24T15:20:30.316Z,76.30
2019-01-24T15:23:00.624Z,76.30
2019-01-24T15:25:30.802Z,76.60
2019-01-24T15:28:00.915Z,76.90
2019-01-24T15:30:31.136Z,77.20
2019-01-24T15:33:01.195Z,77.10
2019-01-24T15:35:31.349Z,77.20
2019-01-24T15:38:01.328Z,77.50
2019-01-24T15:40:32.078Z,77.80
2019-01-24T15:43:02.483Z,78.00
2019-01-24T15:45:32.814Z,78.80
2019-01-24T15:48:09.356Z,78.90
2019-01-24T15:50:43.958Z,79.20
2019-01-24T15:53:25.663Z,79.40
2019-01-24T15:55:58.971Z,79.90
2019-01-24T15:58:34.309Z,80.10
2019-01-24T16:01:16.352Z,80.30
2019-01-24T16:03:47.476Z,80.20
2019-01-24T16:06:21.079Z,80.60
2019-01-24T16:08:52.119Z,81.10
2019-01-24T16:11:29.677Z,81.10
2019-01-24T16:14:02.082Z,81.10
2019-01-24T16:16:34.810Z,81.10
2019-01-24T16:19:09.734Z,81.50
2019-01-24T16:21:58.803Z,82.00
2019-01-24T16:24:33.292Z,81.70
2019-01-24T16:27:08.143Z,82.00
2019-01-24T16:29:38.579Z,81.90
2019-01-24T16:32:11.711Z,82.30
2019-01-24T16:34:47.636Z,82.50
2019-01-24T16:37:34.271Z,83.00
2019-01-24T16:40:06.826Z,83.20
2019-01-24T16:42:44.255Z,83.40
2019-01-24T16:45:33.427Z,83.50
2019-01-24T16:48:16.657Z,83.60
2019-01-24T16:51:02.355Z,84.60
2019-01-24T16:53:39.300Z,85.00
2019-01-24T16:56:09.406Z,85.40
2019-01-24T16:58:45.026Z,85.60
2019-01-24T17:01:21.487Z,85.80
2019-01-24T17:04:03.810Z,86.00
2019-01-24T17:06:34.132Z,85.80
2019-01-24T17:09:20.385Z,86.30
2019-01-24T17:11:56.060Z,86.30
2019-01-24T17:14:46.763Z,86.50
2019-01-24T17:17:56.374Z,86.80
2019-01-24T17:20:32.979Z,86.90
2019-01-24T17:23:11.861Z,87.20
2019-01-24T17:25:51.215Z,87.30
2019-01-24T17:28:25.698Z,87.50
2019-01-24T17:31:47.347Z,87.50
2019-01-24T17:34:20.847Z,87.10
2019-01-24T17:36:50.984Z,87.00
2019-01-24T17:39:21.130Z,87.00
2019-01-24T17:41:51.312Z,87.00
2019-01-24T17:44:21.803Z,87.20
2019-01-24T17:46:53.031Z,87.20
2019-01-24T17:49:23.276Z,87.20
2019-01-24T17:51:54.422Z,87.20
2019-01-24T17:54:24.711Z,87.20
2019-01-24T17:56:54.931Z,87.60
2019-01-24T17:59:26.085Z,87.90
2019-01-24T18:02:14.686Z,88.20
2019-01-24T18:04:45.322Z,88.10
2019-01-24T18:07:15.467Z,88.00
2019-01-24T18:09:47.112Z,88.20
2019-01-24T18:12:17.342Z,88.10
2019-01-24T18:14:47.723Z,88.00
2019-01-24T18:17:17.814Z,88.20
2019-01-24T18:19:47.949Z,88.40
2019-01-24T18:22:18.030Z,88.30
2019-01-24T18:24:48.056Z,88.10
2019-01-24T18:27:18.603Z,88.20
2019-01-24T18:29:48.914Z,88.10
2019-01-24T18:32:19.137Z,88.10
2019-01-24T18:34:49.398Z,88.30
2019-01-24T18:37:19.571Z,88.00
2019-01-24T18:39:49.664Z,88.00
2019-01-24T18:42:19.749Z,88.30
2019-01-24T18:44:49.896Z,88.40
2019-01-24T18:47:21.228Z,88.20
2019-01-24T18:49:51.566Z,88.10
2019-01-24T18:52:21.728Z,88.20
2019-01-24T18:54:52.984Z,88.40
2019-01-24T18:57:23.143Z,88.50
2019-01-24T18:59:55.004Z,88.40
2019-01-24T19:02:25.244Z,88.60
2019-01-24T19:04:55.783Z,88.30
2019-01-24T19:07:26.020Z,88.60
2019-01-24T19:09:56.242Z,88.50
2019-01-24T19:12:27.371Z,88.60
2019-01-24T19:14:57.433Z,89.10
2019-01-24T19:17:27.923Z,89.10
2019-01-24T19:19:58.150Z,89.10
2019-01-24T19:22:28.452Z,89.00
2019-01-24T19:24:58.714Z,88.90
2019-01-24T19:27:29.024Z,89.00
2019-01-24T19:30:00.395Z,89.10
2019-01-24T19:32:30.607Z,88.80
2019-01-24T19:35:00.859Z,88.30
2019-01-24T19:37:30.970Z,88.80
2019-01-24T19:40:01.235Z,89.10
2019-01-24T19:42:31.646Z,89.20
2019-01-24T19:45:01.863Z,89.40
2019-01-24T19:47:32.175Z,89.60
2019-01-24T19:50:02.610Z,89.50
2019-01-24T19:52:32.671Z,89.80
2019-01-24T19:55:08.400Z,89.90
2019-01-24T19:57:45.827Z,90.10
2019-01-24T20:00:20.861Z,90.00
2019-01-24T20:02:54.385Z,90.20
2019-01-24T20:05:34.851Z,90.30
2019-01-24T20:08:13.169Z,90.40
2019-01-24T20:10:52.284Z,90.30
2019-01-24T20:13:35.274Z,90.30
2019-01-24T20:16:25.445Z,90.30
2019-01-24T20:19:10.505Z,90.20
2019-01-24T20:22:07.597Z,90.30
2019-01-24T20:24:59.891Z,90.30
2019-01-24T20:27:52.815Z,90.10
2019-01-24T20:30:49.806Z,90.20
2019-01-24T20:33:49.868Z,90.10
2019-01-24T20:36:48.287Z,90.30
2019-01-24T20:39:33.556Z,89.90
2019-01-24T20:42:22.038Z,89.70
2019-01-24T20:45:14.139Z,89.40
2019-01-24T20:48:00.250Z,89.70
2019-01-24T20:50:46.840Z,89.90
2019-01-24T20:53:35.163Z,89.50
2019-01-24T20:56:16.917Z,89.40
2019-01-24T20:59:02.866Z,89.00
2019-01-24T21:02:06.608Z,89.10
2019-01-24T21:04:43.496Z,89.10
2019-01-24T21:07:32.999Z,89.10
2019-01-24T21:10:24.053Z,88.80
2019-01-24T21:13:00.444Z,88.90
2019-01-24T21:15:31.521Z,88.80
2019-01-24T21:18:03.570Z,88.90
2019-01-24T21:20:33.917Z,89.00
2019-01-24T21:23:04.554Z,88.80
2019-01-24T21:25:35.597Z,88.60
2019-01-24T21:28:05.947Z,88.70
2019-01-24T21:30:37.894Z,88.30
2019-01-24T21:33:08.505Z,88.20
2019-01-24T21:35:39.583Z,88.30
2019-01-24T21:38:10.155Z,88.20
2019-01-24T21:40:40.311Z,88.40
2019-01-24T21:43:11.398Z,88.10
2019-01-24T21:45:42.428Z,88.10
2019-01-24T21:48:13.762Z,88.10
2019-01-24T21:50:43.896Z,87.90
2019-01-24T21:53:15.375Z,88.00
2019-01-24T21:55:45.620Z,87.80
2019-01-24T21:58:16.207Z,87.40
2019-01-24T22:00:46.303Z,87.70
2019-01-24T22:03:18.046Z,87.80
2019-01-24T22:05:48.546Z,87.30
2019-01-24T22:08:20.327Z,87.40
2019-01-24T22:10:50.360Z,87.20
2019-01-24T22:13:20.847Z,87.20
2019-01-24T22:15:51.038Z,87.20
2019-01-24T22:18:21.283Z,87.20
2019-01-24T22:20:55.638Z,87.40
2019-01-24T22:23:23.445Z,87.20
2019-01-24T22:25:55.246Z,86.90
2019-01-24T22:28:26.813Z,86.90
2019-01-24T22:30:59.994Z,87.30
2019-01-24T22:33:30.238Z,87.30
2019-01-24T22:36:00.436Z,87.30
2019-01-24T22:38:30.581Z,87.20
2019-01-24T22:41:00.741Z,87.20
2019-01-24T22:43:31.931Z,86.90
2019-01-24T22:46:02.168Z,87.50
2019-01-24T22:48:32.315Z,87.60
2019-01-24T22:51:02.336Z,87.40
2019-01-24T22:53:32.477Z,87.50
2019-01-24T22:56:02.506Z,87.40
2019-01-24T22:58:32.725Z,87.40
2019-01-24T23:01:30.852Z,87.50
2019-01-24T23:04:07.306Z,87.40
2019-01-24T23:06:40.495Z,87.60
2019-01-24T23:09:11.801Z,87.90
2019-01-24T23:11:45.640Z,87.90
2019-01-24T23:14:15.817Z,88.80
2019-01-24T23:16:46.075Z,88.10
2019-01-24T23:19:16.354Z,88.10
2019-01-24T23:21:46.571Z,88.00
2019-01-24T23:24:16.804Z,88.30
2019-01-24T23:26:47.007Z,88.40
2019-01-24T23:29:18.184Z,88.00
2019-01-24T23:31:48.407Z,87.90
2019-01-24T23:34:18.717Z,88.00
2019-01-24T23:36:48.891Z,88.50
2019-01-24T23:39:19.094Z,87.50
2019-01-24T23:41:49.675Z,87.20
2019-01-24T23:44:19.791Z,87.40
2019-01-24T23:46:50.095Z,87.50
2019-01-24T23:49:21.295Z,87.50
2019-01-24T23:51:51.360Z,87.20
2019-01-24T23:54:21.640Z,87.10
2019-01-24T23:56:51.888Z,86.90
2019-01-24T23:59:23.313Z,86.90
